createdAt,value
2018-03-20T00:00:54.001Z,-2.50
2018-03-20T00:03:22.182Z,-2.60
2018-03-20T00:05:51.281Z,-2.60
2018-03-20T00:08:19.517Z,-2.60
2018-03-20T00:10:48.547Z,-2.50
2018-03-20T00:13:16.664Z,-2.50
2018-03-20T00:15:44.798Z,-2.50
2018-03-20T00:18:13.057Z,-2.40
2018-03-20T00:20:42.060Z,-2.40
2018-03-20T00:23:10.159Z,-2.40
2018-03-20T00:25:38.396Z,-2.40
2018-03-20T00:28:07.357Z,-2.40
2018-03-20T00:30:36.353Z,-2.40
2018-03-20T00:33:04.503Z,-2.40
2018-03-20T00:35:32.723Z,-2.40
2018-03-20T00:38:01.605Z,-2.40
2018-03-20T00:40:29.788Z,-2.40
2018-03-20T00:42:57.921Z,-2.50
2018-03-20T00:45:26.837Z,-2.50
2018-03-20T00:47:54.954Z,-2.50
2018-03-20T00:50:23.162Z,-2.50
2018-03-20T00:52:52.184Z,-2.50
2018-03-20T00:55:20.355Z,-2.50
2018-03-20T00:57:49.274Z,-2.60
2018-03-20T01:00:17.388Z,-2.50
2018-03-20T01:02:46.370Z,-2.50
2018-03-20T01:05:16.222Z,-2.50
2018-03-20T01:07:44.335Z,-2.50
2018-03-20T01:10:12.462Z,-2.50
2018-03-20T01:12:40.636Z,-2.60
2018-03-20T01:15:09.506Z,-2.60
2018-03-20T01:17:37.662Z,-2.60
2018-03-20T01:20:06.584Z,-2.70
2018-03-20T01:22:34.837Z,-2.70
2018-03-20T01:25:03.139Z,-2.80
2018-03-20T01:27:31.251Z,-2.70
2018-03-20T01:29:59.370Z,-2.70
2018-03-20T01:32:27.524Z,-2.70
2018-03-20T01:34:55.724Z,-2.70
2018-03-20T01:37:23.896Z,-2.70
2018-03-20T01:39:51.997Z,-2.70
2018-03-20T01:42:20.241Z,-2.70
2018-03-20T01:44:48.397Z,-2.70
2018-03-20T01:47:16.591Z,-2.70
2018-03-20T01:49:44.706Z,-2.70
2018-03-20T01:52:14.470Z,-2.90
2018-03-20T01:54:42.644Z,-2.90
2018-03-20T01:57:10.750Z,-3.10
2018-03-20T01:59:40.426Z,-3.40
2018-03-20T02:02:08.693Z,-3.40
2018-03-20T02:04:37.584Z,-3.30
2018-03-20T02:07:05.757Z,-3.40
2018-03-20T02:09:33.897Z,-3.40
2018-03-20T02:12:02.874Z,-3.60
2018-03-20T02:14:31.884Z,-3.60
2018-03-20T02:17:00.801Z,-3.60
2018-03-20T02:19:28.926Z,-3.60
2018-03-20T02:21:57.860Z,-3.50
2018-03-20T02:24:26.752Z,-3.50
2018-03-20T02:26:54.876Z,-3.50
2018-03-20T02:29:23.816Z,-3.60
2018-03-20T02:31:51.933Z,-3.60
2018-03-20T02:34:20.131Z,-3.60
2018-03-20T02:36:49.113Z,-3.40
2018-03-20T02:39:18.118Z,-3.40
2018-03-20T02:41:47.031Z,-3.40
2018-03-20T02:44:15.207Z,-3.50
2018-03-20T02:46:43.345Z,-3.50
2018-03-20T02:49:12.265Z,-3.40
2018-03-20T02:51:40.379Z,-3.50
2018-03-20T02:54:08.612Z,-3.30
2018-03-20T02:56:36.853Z,-3.30
2018-03-20T02:59:07.514Z,-3.40
2018-03-20T03:01:35.652Z,-3.50
2018-03-20T03:04:04.576Z,-3.60
2018-03-20T03:06:32.679Z,-3.60
2018-03-20T03:09:00.923Z,-3.60
2018-03-20T03:11:29.022Z,-3.60
2018-03-20T03:13:57.266Z,-3.60
2018-03-20T03:16:25.439Z,-3.60
2018-03-20T03:18:53.610Z,-3.60
2018-03-20T03:21:22.500Z,-3.70
2018-03-20T03:23:50.603Z,-3.70
2018-03-20T03:26:18.750Z,-3.70
2018-03-20T03:28:46.857Z,-3.70
2018-03-20T03:31:15.045Z,-3.70
2018-03-20T03:33:44.033Z,-3.80
2018-03-20T03:36:12.156Z,-3.80
2018-03-20T03:38:40.294Z,-3.80
2018-03-20T03:41:09.313Z,-3.90
2018-03-20T03:43:38.303Z,-3.90
2018-03-20T03:46:07.202Z,-4.00
2018-03-20T03:48:35.366Z,-4.00
2018-03-20T03:51:03.488Z,-4.10
2018-03-20T03:53:31.609Z,-4.10
2018-03-20T03:55:59.724Z,-4.20
2018-03-20T03:58:27.955Z,-4.20
2018-03-20T04:00:56.126Z,-4.20
2018-03-20T04:03:24.997Z,-4.20
2018-03-20T04:05:53.201Z,-4.30
2018-03-20T04:08:21.330Z,-4.20
2018-03-20T04:10:49.465Z,-4.20
2018-03-20T04:13:17.602Z,-4.20
2018-03-20T04:15:45.744Z,-4.10
2018-03-20T04:18:14.768Z,-4.10
2018-03-20T04:20:43.630Z,-4.10
2018-03-20T04:23:11.762Z,-4.20
2018-03-20T04:25:39.905Z,-4.00
2018-03-20T04:28:08.050Z,-4.10
2018-03-20T04:30:36.249Z,-4.00
2018-03-20T04:33:04.386Z,-4.00
2018-03-20T04:35:32.557Z,-4.00
2018-03-20T04:38:01.450Z,-4.00
2018-03-20T04:40:30.366Z,-4.00
2018-03-20T04:42:58.497Z,-4.00
2018-03-20T04:45:26.685Z,-4.00
2018-03-20T04:47:55.588Z,-3.80
2018-03-20T04:50:23.722Z,-3.90
2018-03-20T04:52:51.947Z,-3.80
2018-03-20T04:55:20.118Z,-3.80
2018-03-20T04:57:48.290Z,-3.70
2018-03-20T05:00:17.179Z,-3.60
2018-03-20T05:02:45.273Z,-3.60
2018-03-20T05:05:13.422Z,-3.60
2018-03-20T05:07:41.541Z,-3.50
2018-03-20T05:10:10.484Z,-3.50
2018-03-20T05:12:38.671Z,-3.50
2018-03-20T05:15:06.785Z,-3.50
2018-03-20T05:17:34.917Z,-3.50
2018-03-20T05:20:08.733Z,-3.60
2018-03-20T05:22:39.643Z,-3.50
2018-03-20T05:25:07.815Z,-3.50
2018-03-20T05:27:35.938Z,-3.60
2018-03-20T05:30:04.078Z,-3.70
2018-03-20T05:32:32.227Z,-3.70
2018-03-20T05:35:00.353Z,-3.90
2018-03-20T05:37:29.985Z,-3.90
2018-03-20T05:39:58.116Z,-3.90
2018-03-20T05:42:26.352Z,-3.90
2018-03-20T05:44:55.240Z,-3.90
2018-03-20T05:47:29.044Z,-3.90
2018-03-20T05:50:02.821Z,-3.80
2018-03-20T05:52:31.726Z,-3.70
2018-03-20T05:54:59.861Z,-3.70
2018-03-20T05:57:28.084Z,-3.60
2018-03-20T05:59:56.256Z,-3.70
2018-03-20T06:02:25.147Z,-3.60
2018-03-20T06:04:53.276Z,-3.70
2018-03-20T06:07:22.188Z,-3.60
2018-03-20T06:09:50.326Z,-3.60
2018-03-20T06:12:20.092Z,-3.70
2018-03-20T06:14:48.259Z,-3.60
2018-03-20T06:17:16.415Z,-3.60
2018-03-20T06:19:45.948Z,-3.70
2018-03-20T06:22:14.189Z,-3.70
2018-03-20T06:24:42.384Z,-3.70
2018-03-20T06:27:11.376Z,-3.60
2018-03-20T06:29:39.551Z,-3.60
2018-03-20T06:32:07.679Z,-3.60
2018-03-20T06:34:35.875Z,-3.60
2018-03-20T06:37:04.763Z,-3.70
2018-03-20T06:39:32.890Z,-3.70
2018-03-20T06:42:01.129Z,-3.70
2018-03-20T06:44:29.240Z,-3.70
2018-03-20T06:46:57.425Z,-3.70
2018-03-20T06:49:26.361Z,-3.50
2018-03-20T06:51:54.457Z,-3.50
2018-03-20T06:54:22.605Z,-3.50
2018-03-20T06:56:50.776Z,-3.60
2018-03-20T06:59:18.905Z,-3.70
2018-03-20T07:01:47.036Z,-3.70
2018-03-20T07:04:15.191Z,-3.70
2018-03-20T07:06:44.070Z,-3.60
2018-03-20T07:09:12.243Z,-3.60
2018-03-20T07:11:40.393Z,-3.60
2018-03-20T07:14:09.315Z,-3.60
2018-03-20T07:16:37.457Z,-3.70
2018-03-20T07:19:06.377Z,-3.50
2018-03-20T07:21:35.370Z,-3.40
2018-03-20T07:24:03.499Z,-3.40
2018-03-20T07:26:32.396Z,-3.10
2018-03-20T07:29:01.291Z,-3.00
2018-03-20T07:31:30.310Z,-2.80
2018-03-20T07:33:58.413Z,-2.80
2018-03-20T07:36:26.637Z,-2.80
2018-03-20T07:38:54.832Z,-2.60
2018-03-20T07:41:22.958Z,-2.50
2018-03-20T07:43:51.891Z,-2.20
2018-03-20T07:46:20.041Z,-2.20
2018-03-20T07:48:48.969Z,-2.20
2018-03-20T07:51:17.104Z,-2.20
2018-03-20T07:53:45.274Z,-2.10
2018-03-20T07:56:14.291Z,-1.70
2018-03-20T07:58:42.458Z,-1.70
2018-03-20T08:01:10.594Z,-1.60
2018-03-20T08:03:39.489Z,-1.60
2018-03-20T08:06:08.403Z,-1.60
2018-03-20T08:08:36.783Z,-1.60
2018-03-20T08:11:05.064Z,-1.60
2018-03-20T08:13:33.237Z,-1.50
2018-03-20T08:16:01.340Z,-1.50
2018-03-20T08:18:29.486Z,-1.30
2018-03-20T08:20:57.613Z,-1.10
2018-03-20T08:23:26.548Z,-0.80
2018-03-20T08:25:54.712Z,-0.80
2018-03-20T08:28:22.886Z,-0.50
2018-03-20T08:30:51.774Z,-0.50
2018-03-20T08:33:19.917Z,-0.50
2018-03-20T08:35:48.800Z,-0.20
2018-03-20T08:38:17.817Z,-0.20
2018-03-20T08:40:45.953Z,-0.20
2018-03-20T08:43:14.093Z,-0.10
2018-03-20T08:45:42.216Z,0.10
2018-03-20T08:48:11.209Z,0.20
2018-03-20T08:50:40.126Z,0.40
2018-03-20T08:53:08.237Z,0.30
2018-03-20T08:55:36.405Z,0.50
2018-03-20T08:58:04.566Z,0.80
2018-03-20T09:00:32.878Z,1.00
2018-03-20T09:03:00.932Z,0.90
2018-03-20T09:05:29.070Z,1.00
2018-03-20T09:07:57.348Z,1.10
2018-03-20T09:10:25.508Z,1.10
2018-03-20T09:12:53.648Z,1.20
2018-03-20T09:15:22.636Z,1.30
2018-03-20T09:17:51.545Z,1.10
2018-03-20T09:20:20.443Z,1.20
2018-03-20T09:22:48.573Z,1.10
2018-03-20T09:25:16.747Z,1.20
2018-03-20T09:27:44.858Z,1.40
2018-03-20T09:30:13.100Z,1.20
2018-03-20T09:32:42.006Z,0.70
2018-03-20T09:35:10.138Z,0.60
2018-03-20T09:37:38.266Z,0.50
2018-03-20T09:40:06.416Z,0.50
2018-03-20T09:42:34.577Z,0.70
2018-03-20T09:45:03.478Z,0.70
2018-03-20T09:47:32.538Z,0.80
2018-03-20T09:50:00.605Z,0.80
2018-03-20T09:52:28.759Z,1.00
2018-03-20T09:54:57.016Z,1.30
2018-03-20T09:57:25.126Z,1.30
2018-03-20T09:59:53.249Z,1.20
2018-03-20T10:02:21.399Z,1.10
2018-03-20T10:04:50.280Z,1.30
2018-03-20T10:07:18.476Z,1.30
2018-03-20T10:09:46.593Z,1.50
2018-03-20T10:12:14.753Z,1.40
2018-03-20T10:14:42.915Z,1.30
2018-03-20T10:17:11.857Z,1.80
2018-03-20T10:19:40.973Z,1.70
2018-03-20T10:22:09.113Z,2.10
2018-03-20T10:24:37.243Z,2.30
2018-03-20T10:27:05.417Z,2.10
2018-03-20T10:29:33.558Z,1.80
2018-03-20T10:32:02.577Z,1.90
2018-03-20T10:34:31.469Z,2.00
2018-03-20T10:36:59.582Z,1.90
2018-03-20T10:39:27.721Z,2.10
2018-03-20T10:41:55.842Z,2.30
2018-03-20T10:44:24.059Z,2.10
2018-03-20T10:46:52.170Z,1.80
2018-03-20T10:49:20.396Z,1.90
2018-03-20T10:51:48.570Z,1.80
2018-03-20T10:54:16.697Z,1.90
2018-03-20T10:56:44.825Z,1.90
2018-03-20T10:59:12.930Z,2.00
2018-03-20T11:01:46.177Z,2.20
2018-03-20T11:04:14.329Z,2.50
2018-03-20T11:06:42.468Z,2.50
2018-03-20T11:09:12.081Z,2.30
2018-03-20T11:11:41.117Z,2.30
2018-03-20T11:14:10.122Z,2.50
2018-03-20T11:16:38.245Z,2.50
2018-03-20T11:19:07.149Z,2.20
2018-03-20T11:21:36.526Z,1.90
2018-03-20T11:24:04.641Z,1.90
2018-03-20T11:26:32.773Z,1.50
2018-03-20T11:29:00.902Z,1.50
2018-03-20T11:31:29.062Z,1.70
2018-03-20T11:33:57.164Z,1.60
2018-03-20T11:36:25.312Z,2.10
2018-03-20T11:38:53.425Z,2.30
2018-03-20T11:41:21.652Z,2.80
2018-03-20T11:43:49.753Z,2.90
2018-03-20T11:46:17.992Z,3.00
2018-03-20T11:48:46.134Z,3.30
2018-03-20T11:51:15.056Z,3.70
2018-03-20T11:53:43.177Z,3.70
2018-03-20T11:56:11.308Z,3.80
2018-03-20T11:58:39.575Z,3.80
2018-03-20T12:01:07.762Z,3.80
2018-03-20T12:03:35.860Z,3.60
2018-03-20T12:06:04.008Z,3.70
2018-03-20T12:08:44.033Z,3.80
2018-03-20T12:11:12.411Z,3.90
2018-03-20T12:13:40.513Z,3.90
2018-03-20T12:16:08.760Z,3.80
2018-03-20T12:18:36.962Z,3.40
2018-03-20T12:21:05.113Z,3.40
2018-03-20T12:23:33.286Z,3.70
2018-03-20T12:26:01.416Z,3.70
2018-03-20T12:28:30.300Z,3.80
2018-03-20T12:30:59.326Z,3.40
2018-03-20T12:33:27.478Z,3.30
2018-03-20T12:35:56.454Z,2.70
2018-03-20T12:38:25.350Z,2.60
2018-03-20T12:40:54.241Z,2.80
2018-03-20T12:43:23.261Z,3.10
2018-03-20T12:45:51.378Z,3.10
2018-03-20T12:48:19.708Z,3.50
2018-03-20T12:50:48.573Z,4.20
2018-03-20T12:53:17.484Z,3.70
2018-03-20T12:55:46.350Z,3.80
2018-03-20T12:58:15.264Z,4.00
2018-03-20T13:00:43.415Z,4.00
2018-03-20T13:03:11.542Z,4.30
2018-03-20T13:05:39.748Z,4.70
2018-03-20T13:08:08.666Z,5.70
2018-03-20T13:10:36.804Z,5.70
2018-03-20T13:13:04.914Z,6.10
2018-03-20T13:15:33.027Z,6.20
2018-03-20T13:18:01.266Z,5.80
2018-03-20T13:20:29.389Z,6.50
2018-03-20T13:22:57.525Z,7.40
2018-03-20T13:25:25.740Z,7.40
2018-03-20T13:27:55.550Z,6.00
2018-03-20T13:30:24.450Z,5.20
2018-03-20T13:32:53.338Z,4.80
2018-03-20T13:35:22.254Z,4.60
2018-03-20T13:37:51.147Z,4.70
2018-03-20T13:40:19.317Z,4.60
2018-03-20T13:42:48.168Z,6.70
2018-03-20T13:45:17.080Z,7.60
2018-03-20T13:47:45.939Z,8.50
2018-03-20T13:50:14.124Z,8.40
2018-03-20T13:52:49.131Z,9.70
2018-03-20T13:55:11.910Z,9.70
2018-03-20T13:57:40.814Z,9.10
2018-03-20T14:00:09.813Z,7.90
2018-03-20T14:02:37.926Z,7.80
2018-03-20T14:05:06.054Z,7.30
2018-03-20T14:07:34.234Z,7.00
2018-03-20T14:10:03.291Z,5.20
2018-03-20T14:12:32.218Z,4.90
2018-03-20T14:15:01.216Z,4.90
2018-03-20T14:17:29.305Z,4.90
2018-03-20T14:19:57.521Z,4.90
2018-03-20T14:22:26.430Z,4.80
2018-03-20T14:24:55.335Z,5.00
2018-03-20T14:27:23.508Z,5.00
2018-03-20T14:29:51.609Z,5.70
2018-03-20T14:32:19.858Z,6.20
2018-03-20T14:34:47.998Z,6.70
2018-03-20T14:37:16.880Z,7.70
2018-03-20T14:39:45.885Z,8.10
2018-03-20T14:42:14.080Z,8.10
2018-03-20T14:44:42.214Z,8.20
2018-03-20T14:47:11.097Z,8.70
2018-03-20T14:49:39.243Z,8.70
2018-03-20T14:52:07.379Z,9.10
2018-03-20T14:54:35.543Z,9.20
2018-03-20T14:57:04.426Z,8.90
2018-03-20T14:59:32.561Z,8.80
2018-03-20T15:02:00.754Z,8.70
2018-03-20T15:04:29.685Z,9.00
2018-03-20T15:06:57.788Z,9.00
2018-03-20T15:09:25.930Z,10.00
2018-03-20T15:11:54.097Z,10.90
2018-03-20T15:14:22.233Z,11.30
2018-03-20T15:16:51.143Z,12.70
2018-03-20T15:19:19.341Z,12.70
2018-03-20T15:21:47.513Z,13.60
2018-03-20T15:24:15.642Z,14.10
2018-03-20T15:26:44.572Z,14.60
2018-03-20T15:29:12.754Z,14.60
2018-03-20T15:31:40.909Z,16.00
2018-03-20T15:34:09.893Z,16.50
2018-03-20T15:36:38.051Z,16.40
2018-03-20T15:39:07.053Z,14.60
2018-03-20T15:41:35.244Z,14.60
2018-03-20T15:44:03.365Z,13.90
2018-03-20T15:46:31.570Z,13.30
2018-03-20T15:48:59.703Z,12.50
2018-03-20T15:51:27.878Z,11.60
2018-03-20T15:53:56.092Z,10.60
2018-03-20T15:56:24.993Z,8.50
2018-03-20T15:58:53.211Z,8.50
2018-03-20T16:01:21.443Z,8.50
2018-03-20T16:03:49.630Z,8.90
2018-03-20T16:06:19.223Z,11.00
2018-03-20T16:08:47.397Z,11.00
2018-03-20T16:11:15.601Z,11.70
2018-03-20T16:13:43.752Z,12.10
2018-03-20T16:16:12.017Z,12.90
2018-03-20T16:18:40.117Z,13.10
2018-03-20T16:21:08.276Z,13.50
2018-03-20T16:23:36.432Z,13.60
2018-03-20T16:26:04.604Z,11.70
2018-03-20T16:28:32.799Z,10.60
2018-03-20T16:31:00.955Z,9.40
2018-03-20T16:33:29.089Z,8.30
2018-03-20T16:35:58.041Z,6.80
2018-03-20T16:38:26.171Z,6.80
2018-03-20T16:40:55.086Z,5.50
2018-03-20T16:43:23.247Z,5.40
2018-03-20T16:45:51.421Z,5.00
2018-03-20T16:48:19.498Z,4.70
2018-03-20T16:50:47.764Z,4.40
2018-03-20T16:53:16.755Z,3.90
2018-03-20T16:55:45.634Z,3.80
2018-03-20T16:58:13.772Z,3.70
2018-03-20T17:00:41.997Z,3.60
2018-03-20T17:03:10.160Z,3.20
2018-03-20T17:05:38.333Z,2.90
2018-03-20T17:08:07.302Z,2.50
2018-03-20T17:10:35.499Z,2.50
2018-03-20T17:13:04.396Z,2.30
2018-03-20T17:15:32.561Z,2.30
2018-03-20T17:18:01.450Z,2.20
2018-03-20T17:20:29.607Z,2.20
2018-03-20T17:22:57.796Z,2.20
2018-03-20T17:25:25.967Z,2.10
2018-03-20T17:27:54.151Z,2.00
2018-03-20T17:30:22.326Z,1.90
2018-03-20T17:32:50.489Z,1.80
2018-03-20T17:35:18.673Z,1.70
2018-03-20T17:37:46.837Z,1.60
2018-03-20T17:40:14.950Z,1.60
2018-03-20T17:42:43.090Z,1.50
2018-03-20T17:45:11.336Z,1.50
2018-03-20T17:47:39.498Z,1.50
2018-03-20T17:50:08.420Z,1.40
2018-03-20T17:52:36.583Z,1.40
2018-03-20T17:55:05.586Z,1.30
2018-03-20T17:57:33.748Z,1.20
2018-03-20T18:00:01.882Z,1.20
2018-03-20T18:02:30.208Z,1.20
2018-03-20T18:04:58.302Z,1.10
2018-03-20T18:07:26.438Z,1.00
2018-03-20T18:09:54.611Z,0.90
2018-03-20T18:12:23.468Z,0.80
2018-03-20T18:14:52.393Z,0.70
2018-03-20T18:17:20.510Z,0.70
2018-03-20T18:19:48.719Z,0.70
2018-03-20T18:22:17.583Z,0.80
2018-03-20T18:24:45.796Z,0.80
2018-03-20T18:27:14.787Z,0.80
2018-03-20T18:29:43.713Z,0.70
2018-03-20T18:32:12.061Z,0.60
2018-03-20T18:34:40.240Z,0.60
2018-03-20T18:37:08.436Z,0.50
2018-03-20T18:39:36.674Z,0.50
2018-03-20T18:42:04.851Z,0.30
2018-03-20T18:44:33.123Z,0.20
2018-03-20T18:47:01.220Z,0.10
2018-03-20T18:49:29.381Z,0.00
2018-03-20T18:51:57.640Z,-0.10
2018-03-20T18:54:25.815Z,-0.20
2018-03-20T18:56:54.077Z,-0.20
2018-03-20T18:59:22.244Z,-0.20
2018-03-20T19:01:50.445Z,-0.30
2018-03-20T19:04:18.597Z,-0.20
2018-03-20T19:06:47.500Z,-0.20
2018-03-20T19:09:15.681Z,-0.20
2018-03-20T19:11:43.837Z,-0.10
2018-03-20T19:14:11.995Z,-0.20
2018-03-20T19:16:40.897Z,-0.20
2018-03-20T19:19:09.072Z,-0.20
2018-03-20T19:21:37.286Z,-0.30
2018-03-20T19:24:05.422Z,-0.40
2018-03-20T19:26:33.540Z,-0.50
2018-03-20T19:29:01.867Z,-0.40
2018-03-20T19:31:30.027Z,-0.40
2018-03-20T19:33:58.952Z,-0.30
2018-03-20T19:36:27.099Z,-0.40
2018-03-20T19:38:55.376Z,-0.40
2018-03-20T19:41:23.609Z,-0.50
2018-03-20T19:43:52.618Z,-0.50
2018-03-20T19:46:21.571Z,-0.50
2018-03-20T19:48:49.730Z,-0.50
2018-03-20T19:51:17.951Z,-0.50
2018-03-20T19:53:46.097Z,-0.60
2018-03-20T19:56:14.274Z,-0.60
2018-03-20T19:58:42.612Z,-0.60
2018-03-20T20:01:10.774Z,-0.60
2018-03-20T20:03:39.068Z,-0.50
2018-03-20T20:06:07.214Z,-0.50
2018-03-20T20:08:35.362Z,-0.50
2018-03-20T20:11:04.378Z,-0.60
2018-03-20T20:13:32.542Z,-0.70
2018-03-20T20:16:00.734Z,-0.70
2018-03-20T20:18:28.911Z,-0.70
2018-03-20T20:20:57.175Z,-0.70
2018-03-20T20:23:25.408Z,-0.70
2018-03-20T20:25:53.623Z,-0.70
2018-03-20T20:28:21.785Z,-0.60
2018-03-20T20:30:49.966Z,-0.50
2018-03-20T20:33:18.936Z,-0.50
2018-03-20T20:35:47.093Z,-0.60
2018-03-20T20:38:16.016Z,-0.50
2018-03-20T20:40:45.019Z,-0.50
2018-03-20T20:43:15.305Z,-0.40
2018-03-20T20:45:43.926Z,-0.40
2018-03-20T20:48:12.187Z,-0.40
2018-03-20T20:50:40.334Z,-0.40
2018-03-20T20:53:09.341Z,-0.40
2018-03-20T20:55:38.631Z,-0.40
2018-03-20T20:58:08.536Z,-0.50
2018-03-20T21:00:36.705Z,-0.50
2018-03-20T21:03:05.236Z,-0.40
2018-03-20T21:05:33.476Z,-0.50
2018-03-20T21:08:01.692Z,-0.50
2018-03-20T21:10:29.837Z,-0.50
2018-03-20T21:12:57.988Z,-0.50
2018-03-20T21:15:26.226Z,-0.40
2018-03-20T21:17:54.559Z,-0.40
2018-03-20T21:20:22.682Z,-0.30
2018-03-20T21:22:51.611Z,-0.20
2018-03-20T21:25:19.896Z,-0.20
2018-03-20T21:27:48.316Z,-0.20
2018-03-20T21:30:16.447Z,-0.20
2018-03-20T21:32:44.617Z,-0.30
2018-03-20T21:35:12.792Z,-0.30
2018-03-20T21:37:40.928Z,-0.40
2018-03-20T21:40:09.877Z,-0.40
2018-03-20T21:42:38.038Z,-0.40
2018-03-20T21:45:06.310Z,-0.40
2018-03-20T21:47:34.518Z,-0.30
2018-03-20T21:50:02.757Z,-0.40
2018-03-20T21:52:30.878Z,-0.50
2018-03-20T21:54:59.026Z,-0.50
2018-03-20T21:57:27.174Z,-0.50
2018-03-20T21:59:55.442Z,-0.40
2018-03-20T22:02:23.556Z,-0.40
2018-03-20T22:04:51.834Z,-0.40
2018-03-20T22:07:20.764Z,-0.40
2018-03-20T22:09:49.655Z,-0.60
2018-03-20T22:12:17.808Z,-0.60
2018-03-20T22:14:46.817Z,-0.70
2018-03-20T22:17:15.004Z,-0.70
2018-03-20T22:19:43.153Z,-0.70
2018-03-20T22:22:12.156Z,-0.70
2018-03-20T22:24:40.306Z,-0.70
2018-03-20T22:27:09.208Z,-0.60
2018-03-20T22:29:38.106Z,-0.60
2018-03-20T22:32:06.288Z,-0.60
2018-03-20T22:34:34.408Z,-0.60
2018-03-20T22:37:02.742Z,-0.60
2018-03-20T22:39:30.871Z,-0.60
2018-03-20T22:41:59.799Z,-0.40
2018-03-20T22:44:27.918Z,-0.50
2018-03-20T22:46:57.584Z,-0.50
2018-03-20T22:49:25.723Z,-0.50
2018-03-20T22:51:53.921Z,-0.50
2018-03-20T22:54:22.041Z,-0.50
2018-03-20T22:56:50.266Z,-0.50
2018-03-20T22:59:18.381Z,-0.50
2018-03-20T23:01:46.612Z,-0.40
2018-03-20T23:04:14.726Z,-0.40
2018-03-20T23:06:42.871Z,-0.40
2018-03-20T23:09:11.010Z,-0.50
2018-03-20T23:11:39.134Z,-0.50
2018-03-20T23:14:07.346Z,-0.60
2018-03-20T23:16:36.322Z,-0.60
2018-03-20T23:19:04.513Z,-0.60
2018-03-20T23:21:33.424Z,-0.60
2018-03-20T23:24:01.582Z,-0.60
2018-03-20T23:26:29.821Z,-0.60
2018-03-20T23:28:57.940Z,-0.60
2018-03-20T23:31:26.075Z,-0.60
2018-03-20T23:33:54.213Z,-0.60
2018-03-20T23:36:22.362Z,-0.70
2018-03-20T23:38:50.581Z,-0.70
2018-03-20T23:41:18.739Z,-0.60
2018-03-20T23:43:46.943Z,-0.60
2018-03-20T23:46:15.944Z,-0.60
2018-03-20T23:48:44.922Z,-0.50
2018-03-20T23:51:13.850Z,-0.60
2018-03-20T23:53:41.993Z,-0.60
2018-03-20T23:56:10.976Z,-0.60
2018-03-20T23:58:39.878Z,-0.60
